Flight Track Log - Related Links

Times and Time Zones

All times are in EDT time to prevent confusion due to time zone crossing. See the TAM3591 flight status page for this flight to view local times or setup timezone preferences in your user account.

Time Position Orientation Groundspeed Altitude Reporting Facility
EDT Latitude Longitude Course Direction KTS MPH feet Rate Location/Type
Fri 08:15:19 PM -15.8630 -47.9110 90° East 135 155  Level FlightAware ADS-B
Fri 08:15:48 PM -15.8610 -47.8850 85° East 165 190 4,200 5,778 Climbing FlightAware ADS-B
Fri 08:16:13 PM -15.8600 -47.8670 87° East 148 170 5,200 1,950 Climbing FlightAware ADS-B
Fri 08:16:28 PM -15.8590 -47.8560 85° East 154 177 5,500 1,371 Climbing FlightAware ADS-B
Fri 08:16:48 PM -15.8580 -47.8410 86° East 154 177 6,000 1,067 Climbing FlightAware ADS-B
Fri 08:17:13 PM -15.8570 -47.8210 87° East 180 207 6,300 686 Climbing FlightAware ADS-B
Fri 08:17:23 PM -15.8560 -47.8120 83° East 192 221 6,400 686 Climbing FlightAware ADS-B
Fri 08:17:48 PM -15.8550 -47.7870 88° East 224 258 6,700 750 Climbing FlightAware ADS-B
Fri 08:18:03 PM -15.8540 -47.7700 87° East 248 285 6,900 692 Climbing FlightAware ADS-B
Fri 08:18:14 PM -15.8510 -47.7570 77° East 264 304 7,000 600 Climbing FlightAware ADS-B
Fri 08:18:23 PM -15.8450 -47.7460 60° Northeast 281 323 7,100 1,286 Climbing FlightAware ADS-B
Fri 08:18:28 PM -15.8400 -47.7410 44° Northeast 287 330 7,300 1,385 Climbing FlightAware ADS-B
Fri 08:18:36 PM -15.8350 -47.7380 30° Northeast 292 336 7,400 2,000 Climbing FlightAware ADS-B
Fri 08:18:43 PM -15.8220 -47.7340 16° North 295 339 7,800 3,529 Climbing FlightAware ADS-B
Fri 08:18:53 PM -15.8080 -47.7340 360° North 290 334 8,400 2,800 Climbing FlightAware ADS-B
Fri 08:19:13 PM -15.7830 -47.7360 356° North 293 337 9,200 1,950 Climbing FlightAware ADS-B
Fri 08:19:33 PM -15.7540 -47.7420 349° North 312 359 9,700 1,607 Climbing FlightAware ADS-B
Fri 08:20:09 PM -15.7020 -47.7460 356° North 335 386 10,700 1,457 Climbing FlightAware ADS-B
Fri 08:20:43 PM -15.6440 -47.7520 354° North 364 419 11,400 1,592 Climbing FlightAware ADS-B
Fri 08:20:58 PM -15.6220 -47.7630 334° Northwest 361 415 12,000 2,333 Climbing FlightAware ADS-B
Fri 08:21:19 PM -15.6020 -47.7890 309° West 354 407 12,800 2,600 Climbing FlightAware ADS-B
Fri 08:21:28 PM -15.5960 -47.8050 291° West 350 403 13,300 2,615 Climbing FlightAware ADS-B
Fri 08:21:58 PM -15.5870 -47.8550 281° West 351 404 14,500 1,662 Climbing FlightAware ADS-B
Fri 08:22:33 PM -15.5760 -47.9160 281° West 376 433 15,100 1,200 Climbing FlightAware ADS-B
Fri 08:22:58 PM -15.5800 -47.9600 265° West 382 440 15,700 1,733 Climbing FlightAware ADS-B
Fri 08:23:18 PM -15.5990 -47.9910 238° Southwest 380 437 16,400 2,182 Climbing FlightAware ADS-B
Fri 08:23:53 PM -15.6370 -48.0390 231° Southwest 375 432 17,700 1,800 Climbing FlightAware ADS-B
Fri 08:24:28 PM -15.6760 -48.0890 231° Southwest 383 441 18,500 1,371 Climbing FlightAware ADS-B
Fri 08:25:03 PM -15.7150 -48.1390 231° Southwest 392 451 19,300 1,543 Climbing FlightAware ADS-B
Fri 08:25:38 PM -15.7550 -48.1910 231° Southwest 394 453 20,300 1,714 Climbing FlightAware ADS-B
Fri 08:26:13 PM -15.7940 -48.2420 232° Southwest 392 451 21,300 1,371 Climbing FlightAware ADS-B
Fri 08:26:48 PM -15.8330 -48.2940 232° Southwest 402 463 21,900 1,029 Climbing FlightAware ADS-B
Fri 08:27:23 PM -15.8740 -48.3470 231° Southwest 411 473 22,500 1,083 Climbing FlightAware ADS-B
Fri 08:28:00 PM -15.9170 -48.4040 232° Southwest 417 480 23,200 1,371 Climbing FlightAware ADS-B
Fri 08:28:33 PM -15.9590 -48.4590 232° Southwest 416 479 24,100 1,297 Climbing FlightAware ADS-B
Fri 08:29:14 PM -16.0080 -48.5230 231° Southwest 422 486 24,800 1,120 Climbing FlightAware ADS-B
Fri 08:29:48 PM -16.0500 -48.5790 232° Southwest 427 491 25,500 1,200 Climbing FlightAware ADS-B
Fri 08:30:24 PM -16.0930 -48.6350 231° Southwest 429 494 26,200 1,114 Climbing FlightAware ADS-B
Fri 08:30:58 PM -16.1360 -48.6920 232° Southwest 432 497 26,800 1,114 Climbing FlightAware ADS-B
Fri 08:31:34 PM -16.1800 -48.7490 231° Southwest 434 499 27,500 1,183 Climbing FlightAware ADS-B
Fri 08:32:09 PM -16.2230 -48.8070 232° Southwest 433 498 28,200 1,130 Climbing FlightAware ADS-B
Fri 08:32:43 PM -16.2660 -48.8630 231° Southwest 435 501 28,800 1,043 Climbing FlightAware ADS-B
Fri 08:33:18 PM -16.3100 -48.9220 232° Southwest 437 503 29,400 800 Climbing FlightAware ADS-B
Fri 08:33:58 PM -16.3580 -48.9850 232° Southwest 441 507 29,800 930 Climbing FlightAware ADS-B
Fri 08:34:29 PM -16.3970 -49.0370 232° Southwest 439 505 30,500 806 Climbing FlightAware ADS-B
Fri 08:35:05 PM -16.4390 -49.0920 231° Southwest 445 512 30,700 522 Climbing FlightAware ADS-B
Fri 08:35:38 PM -16.4810 -49.1490 232° Southwest 449 517 31,100 514 Climbing FlightAware ADS-B
Fri 08:36:15 PM -16.5220 -49.2030 232° Southwest 449 517 31,300 930 Climbing FlightAware ADS-B
Fri 08:36:49 PM -16.5770 -49.2750 231° Southwest 448 516 32,200 1,147 Climbing FlightAware ADS-B
Fri 08:37:23 PM -16.6230 -49.3360 232° Southwest 448 516 32,600 738 Climbing FlightAware ADS-B
Fri 08:37:54 PM -16.6580 -49.3830 232° Southwest 448 516 33,000 943 Climbing FlightAware ADS-B
Fri 08:38:33 PM -16.7080 -49.4500 232° Southwest 443 510 33,700 800 Climbing FlightAware ADS-B
Fri 08:39:09 PM -16.7520 -49.5090 232° Southwest 441 507 34,000 240 Climbing FlightAware ADS-B
Fri 08:39:48 PM -16.7940 -49.5640 231° Southwest 441 507 34,000  Level FlightAware ADS-B
Fri 08:40:24 PM -16.8320 -49.6160 233° Southwest 441 507 34,000 986 Level FlightAware ADS-B
Fri 08:41:01 PM -16.8900 -49.6930 232° Southwest 437 503 35,200 986 Climbing FlightAware ADS-B
Fri 08:41:37 PM -16.9280 -49.7440 232° Southwest 437 503 35,200  Level FlightAware ADS-B
Fri 08:42:14 PM -16.9670 -49.7960 232° Southwest 437 503 35,200  Level FlightAware ADS-B
Fri 08:42:51 PM -17.0060 -49.8480 232° Southwest 437 503 35,200  Level FlightAware ADS-B
Fri 08:43:28 PM -17.0460 -49.9010 232° Southwest 437 503 35,200  Level FlightAware ADS-B
Fri 08:44:05 PM -17.0850 -49.9530 232° Southwest 437 503 35,200 552 Level FlightAware ADS-B
Fri 08:44:55 PM -17.1740 -50.0730 232° Southwest 428 493 36,000 615 Climbing FlightAware ADS-B
Fri 08:45:23 PM -17.2140 -50.1270 232° Southwest 429 494 36,000  Level FlightAware ADS-B
Fri 08:46:12 PM -17.2650 -50.1960 232° Southwest 428 493 36,000  Level FlightAware ADS-B
Fri 08:46:50 PM -17.3050 -50.2490 232° Southwest 428 493 36,000  Level FlightAware ADS-B
Fri 08:47:24 PM -17.3400 -50.2960 232° Southwest 428 493 36,000  Level FlightAware ADS-B
Fri 08:48:00 PM -17.3770 -50.3460 232° Southwest 428 493 36,000  Level FlightAware ADS-B
Fri 08:48:34 PM -17.4130 -50.3930 231° Southwest 428 493 36,000  Level FlightAware ADS-B
Fri 08:49:10 PM -17.4500 -50.4430 232° Southwest 428 493 36,000  Level FlightAware ADS-B
Fri 08:49:46 PM -17.4870 -50.4930 232° Southwest 428 493 36,000  Level FlightAware ADS-B
Fri 08:50:23 PM -17.5250 -50.5450 233° Southwest 428 493 36,000  Level FlightAware ADS-B
Fri 08:51:00 PM -17.5640 -50.5960 231° Southwest 428 493 36,000  Level FlightAware ADS-B
Fri 08:51:38 PM -17.6030 -50.6490 232° Southwest 428 493 36,000  Level FlightAware ADS-B
Fri 08:52:16 PM -17.6430 -50.7020 232° Southwest 428 493 36,000  Level FlightAware ADS-B
Fri 08:52:52 PM -17.6800 -50.7520 232° Southwest 428 493 36,000  Level FlightAware ADS-B
Fri 08:53:28 PM -17.7170 -50.8020 232° Southwest 428 493 36,000  Level FlightAware ADS-B
Fri 08:54:05 PM -17.7560 -50.8540 232° Southwest 428 493 36,000  Level FlightAware ADS-B
Fri 08:54:42 PM -17.7940 -50.9050 232° Southwest 428 493 36,000  Level FlightAware ADS-B
Fri 08:55:19 PM -17.8320 -50.9570 232° Southwest 428 493 36,000  Level FlightAware ADS-B
Fri 08:57:00 PM -17.9251 -51.0846 232° Southwest  Level Estimated
Fri 08:58:00 PM -17.9804 -51.1604 233° Southwest  Level Estimated
Fri 08:59:00 PM -18.0357 -51.2363 233° Southwest  Level Estimated
Fri 09:00:00 PM -18.0909 -51.3122 233° Southwest  Level Estimated
Fri 09:01:00 PM -18.1461 -51.3882 233° Southwest  Level Estimated
Fri 09:02:00 PM -18.2013 -51.4643 233° Southwest  Level Estimated
Fri 09:03:00 PM -18.2564 -51.5404 233° Southwest  Level Estimated
Fri 09:04:00 PM -18.3115 -51.6165 233° Southwest  Level Estimated
Fri 09:05:00 PM -18.3666 -51.6927 233° Southwest  Level Estimated
Fri 09:05:51 PM -18.7040 -52.1610 233° Southwest 431 496 36,000  Level FlightAware ADS-B
Fri 09:06:00 PM -18.4217 -51.7689 233° Southwest  Level Estimated
Fri 09:06:29 PM -18.7510 -52.2280 233° Southwest 432 497 36,000  Level FlightAware ADS-B
Fri 09:07:03 PM -18.7920 -52.2840 232° Southwest 432 497 36,000  Level FlightAware ADS-B
Fri 09:07:37 PM -18.8340 -52.3430 233° Southwest 432 497 36,000  Level FlightAware ADS-B
Fri 09:08:15 PM -18.8790 -52.4050 233° Southwest 433 498 36,000  Level FlightAware ADS-B
Fri 09:08:49 PM -18.9200 -52.4630 233° Southwest 432 497 36,000  Level FlightAware ADS-B
Fri 09:09:23 PM -18.9620 -52.5200 232° Southwest 430 495 36,000  Level FlightAware ADS-B
Fri 09:10:01 PM -19.0060 -52.5830 234° Southwest 430 495 36,000  Level FlightAware ADS-B
Fri 09:10:33 PM -19.0460 -52.6380 232° Southwest 429 494 36,000  Level FlightAware ADS-B
Fri 09:11:08 PM -19.0870 -52.6950 233° Southwest 429 494 36,000  Level FlightAware ADS-B
Fri 09:11:50 PM -19.1380 -52.7670 233° Southwest 428 493 36,000  Level FlightAware ADS-B
Fri 09:12:24 PM -19.1780 -52.8240 233° Southwest 427 491 36,000  Level FlightAware ADS-B
Fri 09:12:56 PM -19.2160 -52.8770 233° Southwest 427 491 36,000  Level FlightAware ADS-B
Fri 09:13:37 PM -19.2640 -52.9430 232° Southwest 426 490 36,000  Level FlightAware ADS-B
Fri 09:14:10 PM -19.3050 -53.0010 233° Southwest 427 491 36,000  Level FlightAware ADS-B
Fri 09:14:42 PM -19.3430 -53.0540 233° Southwest 428 493 36,000  Level FlightAware ADS-B
Fri 09:15:20 PM -19.3880 -53.1180 233° Southwest 429 494 36,000  Level FlightAware ADS-B
Fri 09:15:54 PM -19.4280 -53.1740 233° Southwest 428 493 36,000  Level FlightAware ADS-B
Fri 09:16:32 PM -19.4740 -53.2390 233° Southwest 429 494 36,000  Level FlightAware ADS-B
Fri 09:17:06 PM -19.5140 -53.2960 233° Southwest 429 494 36,000  Level FlightAware ADS-B
Fri 09:17:43 PM -19.5560 -53.3560 233° Southwest 430 495 36,000  Level FlightAware ADS-B
Fri 09:18:16 PM -19.5970 -53.4140 233° Southwest 430 495 36,000  Level FlightAware ADS-B
Fri 09:18:52 PM -19.6400 -53.4740 233° Southwest 429 494 36,000  Level FlightAware ADS-B
Fri 09:19:24 PM -19.6780 -53.5290 234° Southwest 429 494 36,000 -441 Level FlightAware ADS-B
Fri 09:20:00 PM -19.7200 -53.5890 233° Southwest 423 487 35,500 -1,333 Descending FlightAware ADS-B
Fri 09:20:36 PM -19.7630 -53.6480 232° Southwest 418 481 34,400 -1,457 Descending FlightAware ADS-B
Fri 09:21:10 PM -19.8080 -53.7010 228° Southwest 437 503 33,800 -1,059 Descending FlightAware ADS-B
Fri 09:21:44 PM -19.8540 -53.7540 227° Southwest 442 509 33,200 -1,629 Descending FlightAware ADS-B
Fri 09:22:20 PM -19.9040 -53.8140 228° Southwest 442 509 31,900 -2,917 Descending FlightAware ADS-B
Fri 09:22:56 PM -19.9530 -53.8720 228° Southwest 446 513 29,700 -4,182 Descending FlightAware ADS-B
Fri 09:23:26 PM -19.9960 -53.9220 228° Southwest 460 529 27,300 -4,750 Descending FlightAware ADS-B
Fri 09:24:08 PM -20.0560 -53.9940 228° Southwest 475 547 24,000 -4,026 Descending FlightAware ADS-B
Fri 09:24:42 PM -20.1040 -54.0500 228° Southwest 469 540 22,200 -3,182 Descending FlightAware ADS-B
Fri 09:25:14 PM -20.1520 -54.1070 228° Southwest 463 533 20,500 -3,182 Descending FlightAware ADS-B
Fri 09:25:48 PM -20.2000 -54.1640 228° Southwest 451 519 18,700 -3,000 Descending FlightAware ADS-B
Fri 09:26:28 PM -20.2550 -54.2290 228° Southwest 439 505 16,800 -2,877 Descending FlightAware ADS-B
Fri 09:27:01 PM -20.2980 -54.2810 229° Southwest 432 497 15,200 -2,870 Descending FlightAware ADS-B
Fri 09:27:37 PM -20.3470 -54.3380 227° Southwest 428 493 13,500 -2,696 Descending FlightAware ADS-B
Fri 09:28:10 PM -20.3900 -54.3900 229° Southwest 415 478 12,100 -1,765 Descending FlightAware ADS-B
Fri 09:28:45 PM -20.4330 -54.4420 229° Southwest 382 440 11,500 -1,014 Descending FlightAware ADS-B
Fri 09:29:21 PM -20.4730 -54.4890 228° Southwest 353 406 10,900 -857 Descending FlightAware ADS-B
Fri 09:29:55 PM -20.5090 -54.5330 229° Southwest 326 375 10,500 -696 Descending FlightAware ADS-B
Fri 09:30:30 PM -20.5420 -54.5730 229° Southwest 303 349 10,100 -931 Descending FlightAware ADS-B
Fri 09:30:53 PM -20.5640 -54.5980 227° Southwest 298 343 9,600 -1,535 Descending FlightAware ADS-B
Fri 09:31:13 PM -20.5820 -54.6200 229° Southwest 301 346 9,000 -1,667 Descending FlightAware ADS-B
Fri 09:31:29 PM -20.5970 -54.6390 230° Southwest 300 345 8,600 -1,429 Descending FlightAware ADS-B
Fri 09:31:55 PM -20.6220 -54.6680 227° Southwest 296 341 8,000 -1,435 Descending FlightAware ADS-B
Fri 09:32:15 PM -20.6390 -54.6890 229° Southwest 294 338 7,500 -1,500 Descending FlightAware ADS-B
Fri 09:32:35 PM -20.6570 -54.7110 229° Southwest 291 335 7,000 -1,500 Descending FlightAware ADS-B
Fri 09:32:43 PM -20.6620 -54.7220 244° Southwest 286 329 6,800 -1,500 Descending FlightAware ADS-B
Fri 09:32:51 PM -20.6650 -54.7330 254° West 280 322 6,600 -1,500 Descending FlightAware ADS-B
Fri 09:32:55 PM -20.6650 -54.7380 270° West 277 319 6,500 -1,400 Descending FlightAware ADS-B
Fri 09:33:21 PM -20.6540 -54.7690 291° West 261 300 5,900 -1,263 Descending FlightAware ADS-B
Fri 09:33:33 PM -20.6430 -54.7780 323° Northwest 255 293 5,700 -727 Descending FlightAware ADS-B
Fri 09:33:54 PM -20.6210 -54.7910 331° Northwest 240 276 5,500 -621 Descending FlightAware ADS-B
Fri 09:34:02 PM -20.6130 -54.7940 341° North 233 268 5,400 -857 Descending FlightAware ADS-B
Fri 09:34:08 PM -20.6070 -54.7940 360° North 230 265 5,300 -857 Descending FlightAware ADS-B
Fri 09:34:30 PM -20.5870 -54.7850 23° Northeast 204 235 5,000 -1,286 Descending FlightAware ADS-B
Fri 09:34:50 PM -20.5730 -54.7730 39° Northeast 185 213 4,400 -1,875 Descending FlightAware ADS-B
Fri 09:35:02 PM -20.5650 -54.7650 43° Northeast 192 221 4,000 -1,688 Descending FlightAware ADS-B
Fri 09:35:22 PM -20.5520 -54.7530 41° Northeast 186 214 3,500 -1,167 Descending FlightAware ADS-B
Fri 09:35:38 PM -20.5420 -54.7430 43° Northeast 168 193 3,300 -789 Descending FlightAware ADS-B
Fri 09:36:00 PM -20.5300 -54.7320 41° Northeast 155 178 3,000 -833 Descending FlightAware ADS-B
Fri 09:36:14 PM -20.5220 -54.7250 39° Northeast 151 174 2,800 -667 Descending FlightAware ADS-B
Fri 09:36:36 PM -20.5110 -54.7140 43° Northeast 148 170 2,600 -714 Descending FlightAware ADS-B
Fri 09:36:56 PM -20.5010 -54.7040 43° Northeast 150 173 2,300 -750 Descending FlightAware ADS-B
Fri 09:37:16 PM -20.4910 -54.6940 43° Northeast 153 176 2,100 -750 Descending FlightAware ADS-B
Fri 09:37:36 PM -20.4810 -54.6840 43° Northeast 148 170 1,800 -900 Descending FlightAware ADS-B
Fri 09:37:56 PM -20.4700 -54.6740 40° Northeast 125 144 -5,400 Descending FlightAware ADS-B

Login

Don't have an account? Register now (free) for customized features, flight alerts, and more!